Terminal Aerodrome Forecast
Issued by NWS Cleveland, OH

Home | Current Version | Previous Version | Text Only | Print | Product List | Glossary Off
Versions: 1 2 3 4 5 6 7 8 9 10 11 12 13 14 15

000
FTUS41 KCLE 102300
TAFTOL
TAF
KTOL 102320Z 1100/1124 06006KT P6SM SCT060
     FM110100 06003KT P6SM SKC
      TEMPO 1109/1112 6SM BR
     FM111500 14006KT P6SM SCT060=

USA.gov is the U.S. government's official web portal to all federal, state and local government web resources and services.